Nord Nanami — 3EWR2 — position and weather

sailwx.info

Track history (hours):
 
Tides and Currents Weather Stations Pressure Air Temp Water Temp Dewpoint Dewpoint Depression Visibility Wind Speed Wind Dir Waves Ship Positions

Nord Nanami

Last reported at 2017-Jul-12 21:07 UTC. Time now 2017-Jul-25 02:27 UTC.
Position N 27°36' W 082°44'.
Warning: this ship's position is 12 days out of date.

Length 180 m; draft 9.5 m.

Type: Ship. MMSI: 373694000.

Date/timePositionNaut miles runAvg speedWind from/ knotsBaromVisibWave heightAir tempDewpointWater temp
2017-Jul-12 21:07N 27°36' W 082°44'112.5
2017-Jul-12 21:00N 27°36' W 082°43'810.7
2017-Jul-12 20:14N 27°41' W 082°35'410.5
2017-Jul-12 19:53N 27°44' W 082°32'410.3
2017-Jul-12 19:30N 27°47' W 082°31'5 9.7
2017-Jul-12 19:00N 27°51' W 082°27'4 8.0
2017-Jul-12 18:30N 27°55' W 082°26'1 2.0
2017-Jul-12 17:59N 27°56' W 082°26'0 0.0
2017-Jul-12 17:29N 27°56' W 082°26'0 0.0
2017-Jul-12 16:59N 27°56' W 082°26'0 0.0
2017-Jul-12 16:29N 27°56' W 082°26'0 0.0
2017-Jul-12 15:59N 27°56' W 082°26'0 0.0
2017-Jul-12 15:29N 27°56' W 082°26'0 0.0
2017-Jul-12 14:59N 27°56' W 082°26'0 0.0
2017-Jul-12 13:59N 27°56' W 082°26'0 0.0
2017-Jul-12 13:29N 27°56' W 082°26'0 0.0
2017-Jul-12 12:59N 27°56' W 082°26'0 0.0
2017-Jul-12 12:29N 27°56' W 082°26'0 0.0
2017-Jul-12 11:59N 27°56' W 082°26'0 0.0
2017-Jul-12 11:29N 27°56' W 082°26'0 0.0
2017-Jul-12 10:59N 27°56' W 082°26'0 0.0
2017-Jul-12 10:29N 27°56' W 082°26'0 0.0
2017-Jul-12 09:59N 27°56' W 082°26'0 0.0
2017-Jul-12 09:29N 27°56' W 082°26'0 0.0
2017-Jul-12 08:59N 27°56' W 082°26'0 0.0
2017-Jul-12 08:29N 27°56' W 082°26'0 0.0
2017-Jul-12 07:59N 27°56' W 082°26'0 0.0
2017-Jul-12 07:29N 27°56' W 082°26'0 0.0
2017-Jul-12 06:59N 27°56' W 082°26'0 0.0
2017-Jul-12 06:29N 27°56' W 082°26'0 0.0
2017-Jul-12 05:56N 27°56' W 082°26'0 0.0
2017-Jul-12 05:29N 27°56' W 082°26'0 0.0
2017-Jul-12 04:59N 27°56' W 082°26'0 0.0
2017-Jul-12 04:29N 27°56' W 082°26'0 0.0
2017-Jul-12 03:59N 27°56' W 082°26'0 0.0
2017-Jul-12 03:29N 27°56' W 082°26'0 0.0
2017-Jul-12 02:59N 27°56' W 082°26'0 0.0
2017-Jul-12 02:26N 27°56' W 082°26'0 0.0
2017-Jul-12 01:59N 27°56' W 082°26'0 0.0
2017-Jul-12 01:29N 27°56' W 082°26'0 0.0
2017-Jul-12 00:59N 27°56' W 082°26'0 0.0
2017-Jul-12 00:29N 27°56' W 082°26'0 0.0
2017-Jul-11 23:59N 27°56' W 082°26'0 0.0
2017-Jul-11 23:29N 27°56' W 082°26'0 0.0
2017-Jul-11 22:59N 27°56' W 082°26'0 0.0
2017-Jul-11 22:29N 27°56' W 082°26'0 0.0
2017-Jul-11 21:59N 27°56' W 082°26'0 0.0
2017-Jul-11 21:29N 27°56' W 082°26'0 0.0
2017-Jul-11 20:59N 27°56' W 082°26'0 0.0
2017-Jul-11 20:29N 27°56' W 082°26'0 0.1
2017-Jul-11 20:00N 27°56' W 082°26'1 1.4
2017-Jul-11 19:30N 27°55' W 082°26'2 4.8
2017-Jul-11 19:00N 27°53' W 082°26'510.0
2017-Jul-11 18:30N 27°48' W 082°29'510.9
2017-Jul-11 18:01N 27°44' W 082°32'612.5
2017-Jul-11 17:31N 27°39' W 082°37'612.7
2017-Jul-11 17:01N 27°36' W 082°43'19 1.8
2017-Jul-11 06:16N 27°39' W 083°04'0 0.0
2017-Jul-11 05:52N 27°39' W 083°04'0 0.0
2017-Jul-11 03:21N 27°39' W 083°04'1 2.0
2017-Jul-11 02:59N 27°38' W 083°05'2 3.6
2017-Jul-11 02:18N 27°36' W 083°04'1111.6
2017-Jul-11 01:22N 27°36' W 082°52'513.0
2017-Jul-11 01:00N 27°37' W 082°46'713.2
2017-Jul-11 00:28N 27°38' W 082°38'612.9
2017-Jul-11 00:00N 27°42' W 082°33'612.2
2017-Jul-10 23:30N 27°47' W 082°31'5 9.9
2017-Jul-10 23:00N 27°51' W 082°27'3 5.6
2017-Jul-10 22:30N 27°51' W 082°24'0 0.2
2017-Jul-10 21:55N 27°51' W 082°24'0 0.0
2017-Jul-10 21:29N 27°51' W 082°24'0 0.0
2017-Jul-10 20:59N 27°51' W 082°24'0 0.0
2017-Jul-10 20:28N 27°51' W 082°24'0 0.0
2017-Jul-10 19:58N 27°51' W 082°24'0 0.0
2017-Jul-10 19:28N 27°51' W 082°24'0 0.0
2017-Jul-10 18:58N 27°51' W 082°24'0 0.0
2017-Jul-10 18:28N 27°51' W 082°24'0 0.0
2017-Jul-10 17:58N 27°51' W 082°24'0 0.0
2017-Jul-10 17:29N 27°51' W 082°24'0 0.0
2017-Jul-10 17:00N 27°51' W 082°24'0 0.0
2017-Jul-10 16:30N 27°51' W 082°24'0 0.0
2017-Jul-10 16:00N 27°51' W 082°24'0 0.0
2017-Jul-10 15:30N 27°51' W 082°24'0 0.0
2017-Jul-10 15:00N 27°51' W 082°24'0 0.0
2017-Jul-10 14:30N 27°51' W 082°24'0 0.0
2017-Jul-10 14:00N 27°51' W 082°24'0 0.0
2017-Jul-10 13:30N 27°51' W 082°24'0 0.0
2017-Jul-10 13:00N 27°51' W 082°24'0 0.0
2017-Jul-10 12:30N 27°51' W 082°24'0 0.0
2017-Jul-10 12:00N 27°51' W 082°24'0 0.0
2017-Jul-10 11:30N 27°51' W 082°24'0 0.0
2017-Jul-10 11:00N 27°51' W 082°24'0 0.0
2017-Jul-10 10:30N 27°51' W 082°24'0 0.0
2017-Jul-10 10:00N 27°51' W 082°24'0 0.0
2017-Jul-10 09:30N 27°51' W 082°24'0 0.0
2017-Jul-10 09:00N 27°51' W 082°24'0 0.0
2017-Jul-10 08:30N 27°51' W 082°24'0 0.0
2017-Jul-10 08:00N 27°51' W 082°24'0 0.0
2017-Jul-10 07:30N 27°51' W 082°24'0 0.0
2017-Jul-10 07:00N 27°51' W 082°24'0 0.0
2017-Jul-10 06:30N 27°51' W 082°24'0 0.0
2017-Jul-10 06:00N 27°51' W 082°24'0 0.0
2017-Jul-10 05:30N 27°51' W 082°24'0 0.0
2017-Jul-10 05:00N 27°51' W 082°24'0 0.0
2017-Jul-10 04:30N 27°51' W 082°24'0 0.0
2017-Jul-10 04:00N 27°51' W 082°24'0 0.0
2017-Jul-10 03:30N 27°51' W 082°24'0 0.0
2017-Jul-10 03:00N 27°51' W 082°24'0 0.0
2017-Jul-10 02:30N 27°51' W 082°24'0 0.0
2017-Jul-10 02:00N 27°51' W 082°24'0 0.0
2017-Jul-10 01:30N 27°51' W 082°24'0 0.0
2017-Jul-10 01:00N 27°51' W 082°24'0 0.0
2017-Jul-10 00:30N 27°51' W 082°24'0 0.0
2017-Jul-10 00:00N 27°51' W 082°24'0 0.0
2017-Jul-09 23:30N 27°51' W 082°24'0 0.0
2017-Jul-09 23:00N 27°51' W 082°24'0 0.0
2017-Jul-09 22:30N 27°51' W 082°24'0 0.0
2017-Jul-09 22:00N 27°51' W 082°24'0 0.0
2017-Jul-09 21:30N 27°51' W 082°24'0 0.0
2017-Jul-09 21:00N 27°51' W 082°24'0 0.0
2017-Jul-09 20:30N 27°51' W 082°24'0 0.0
2017-Jul-09 20:00N 27°51' W 082°24'0 0.0
2017-Jul-09 19:30N 27°51' W 082°24'0 0.0
2017-Jul-09 18:57N 27°51' W 082°24'0 0.0
2017-Jul-09 18:30N 27°51' W 082°24'0 0.0
2017-Jul-09 17:57N 27°51' W 082°24'0 0.0
2017-Jul-09 17:30N 27°51' W 082°24'0 0.0
2017-Jul-09 17:00N 27°51' W 082°24'0 0.0
2017-Jul-09 16:30N 27°51' W 082°24'0 0.0
2017-Jul-09 16:00N 27°51' W 082°24'0 0.0
2017-Jul-09 15:30N 27°51' W 082°24'0 0.0
2017-Jul-09 15:00N 27°51' W 082°24'0 0.0
2017-Jul-09 14:30N 27°51' W 082°24'0 0.0
2017-Jul-09 14:00N 27°51' W 082°24'0 0.0
2017-Jul-09 13:30N 27°51' W 082°24'0 0.0
2017-Jul-09 13:00N 27°51' W 082°24'0 0.0
2017-Jul-09 12:21N 27°51' W 082°24'0 0.0
2017-Jul-09 12:00N 27°51' W 082°24'0 0.0
2017-Jul-09 11:27N 27°51' W 082°24'0 0.0
2017-Jul-09 10:54N 27°51' W 082°24'0 0.0
2017-Jul-09 10:27N 27°51' W 082°24'0 0.0
2017-Jul-09 10:00N 27°51' W 082°24'0 0.0
2017-Jul-09 09:30N 27°51' W 082°24'0 0.0
2017-Jul-09 08:57N 27°51' W 082°24'0 0.0
2017-Jul-09 08:27N 27°51' W 082°24'0 0.0
2017-Jul-09 08:00N 27°51' W 082°24'0 0.0
2017-Jul-09 07:30N 27°51' W 082°24'0 0.0
2017-Jul-09 07:00N 27°51' W 082°24'0 0.0
2017-Jul-09 06:30N 27°51' W 082°24'0 0.0
2017-Jul-09 06:00N 27°51' W 082°24'0 0.0
2017-Jul-09 05:30N 27°51' W 082°24'0 0.0
2017-Jul-09 05:00N 27°51' W 082°24'0 0.0
2017-Jul-09 04:30N 27°51' W 082°24'0 0.0
2017-Jul-09 03:57N 27°51' W 082°24'0 0.0
2017-Jul-09 03:30N 27°51' W 082°24'0 0.0
2017-Jul-09 03:00N 27°51' W 082°24'0 0.0
2017-Jul-09 02:30N 27°51' W 082°24'0 0.0
2017-Jul-09 02:00N 27°51' W 082°24'0 0.0
2017-Jul-09 01:27N 27°51' W 082°24'0 0.0
2017-Jul-09 01:00N 27°51' W 082°24'0 0.0
2017-Jul-09 00:30N 27°51' W 082°24'0 0.0
2017-Jul-09 00:00N 27°51' W 082°24'0 0.0
2017-Jul-08 23:30N 27°51' W 082°24'0 0.0
2017-Jul-08 23:00N 27°51' W 082°24'0 0.0
2017-Jul-08 22:30N 27°51' W 082°24'0 0.0
2017-Jul-08 22:00N 27°51' W 082°24'0 0.0
2017-Jul-08 21:30N 27°51' W 082°24'0 0.0
2017-Jul-08 21:00N 27°51' W 082°24'0 0.0
2017-Jul-08 20:30N 27°51' W 082°24'0 0.0
2017-Jul-08 20:00N 27°51' W 082°24'0 0.0
2017-Jul-08 19:30N 27°51' W 082°24'2 3.2
2017-Jul-08 19:00N 27°51' W 082°25'4 7.6
2017-Jul-08 18:31N 27°48' W 082°28'611.2
2017-Jul-08 18:00N 27°44' W 082°32'612.9
2017-Jul-08 17:30N 27°39' W 082°37'612.8
2017-Jul-08 17:01N 27°36' W 082°43'202 5.7
2017-Jul-07 05:45N 25°23' W 079°53'210.0
2017-Jul-07 05:30N 25°26' W 079°52'510.1
2017-Jul-07 05:00N 25°31' W 079°51'510.1
2017-Jul-07 04:30N 25°35' W 079°49'510.1
2017-Jul-07 04:00N 25°40' W 079°48'510.2
2017-Jul-07 03:30N 25°45' W 079°46'510.4
2017-Jul-07 03:00N 25°50' W 079°44'510.5
2017-Jul-07 02:30N 25°55' W 079°43'510.7
2017-Jul-07 02:00N 26°00' W 079°41'510.9
2017-Jul-07 01:30N 26°05' W 079°39'510.9
2017-Jul-07 01:00N 26°11' W 079°38'611.1
2017-Jul-07 00:30N 26°16' W 079°36'  
2017-Jul-04 14:55N 36°46' W 075°44'1111.6
2017-Jul-04 14:00N 36°53' W 075°54'612.4
2017-Jul-04 13:30N 36°57' W 075°60'612.3
2017-Jul-04 13:00N 37°02' W 076°04'713.0
2017-Jul-04 12:30N 37°08' W 076°08'1412.4
2017-Jul-04 11:21N 37°22' W 076°08'812.6
2017-Jul-04 10:42N 37°30' W 076°08'212.7
2017-Jul-04 10:30N 37°33' W 076°08'713.1
2017-Jul-04 10:00N 37°39' W 076°10'713.5
2017-Jul-04 09:30N 37°46' W 076°11'713.6
2017-Jul-04 09:00N 37°53' W 076°10'713.9
2017-Jul-04 08:30N 37°59' W 076°12'713.8
2017-Jul-04 08:00N 38°06' W 076°14'713.2
2017-Jul-04 07:31N 38°12' W 076°17'713.0
2017-Jul-04 07:00N 38°19' W 076°19'510.2
2017-Jul-04 06:30N 38°23' W 076°21'612.7
2017-Jul-04 06:00N 38°29' W 076°24'612.7
2017-Jul-04 05:30N 38°35' W 076°26'612.6
2017-Jul-04 05:00N 38°42' W 076°26'612.7
2017-Jul-04 04:30N 38°48' W 076°25'612.8
2017-Jul-04 04:01N 38°54' W 076°24'612.4
2017-Jul-04 03:31N 39°01' W 076°23'612.6
2017-Jul-04 03:01N 39°07' W 076°24'612.1
2017-Jul-04 02:31N 39°11' W 076°29'4 7.9
2017-Jul-04 02:01N 39°14' W 076°32'0 0.1
2017-Jul-04 01:31N 39°14' W 076°32'0 0.0
2017-Jul-04 01:01N 39°14' W 076°32'0 0.0
2017-Jul-04 00:31N 39°14' W 076°32'0 0.0
2017-Jul-04 00:00N 39°14' W 076°32'0 0.0
2017-Jul-03 23:31N 39°14' W 076°32'0 0.0
2017-Jul-03 23:01N 39°14' W 076°32'0 0.0
2017-Jul-03 22:30N 39°14' W 076°32'0 0.0
2017-Jul-03 22:01N 39°14' W 076°32'0 0.1
2017-Jul-03 21:31N 39°14' W 076°32'0 0.1
2017-Jul-03 21:01N 39°14' W 076°32'0 0.1
2017-Jul-03 20:31N 39°14' W 076°32'0 0.1
2017-Jul-03 19:58N 39°14' W 076°33'2 3.5
2017-Jul-03 19:30N 39°15' W 076°34'2 3.7
2017-Jul-03 19:00N 39°17' W 076°35'0 0.3
2017-Jul-03 18:29N 39°17' W 076°36'0 0.0
2017-Jul-03 17:59N 39°17' W 076°36'0 0.0
2017-Jul-03 17:23N 39°17' W 076°36'0 0.0
2017-Jul-03 16:59N 39°17' W 076°36'0 0.0
2017-Jul-03 16:26N 39°17' W 076°36'0 0.0
2017-Jul-03 15:59N 39°17' W 076°36'0 0.0
2017-Jul-03 15:29N 39°17' W 076°36'0 0.0
2017-Jul-03 14:59N 39°17' W 076°36'0 0.0
2017-Jul-03 13:59N 39°17' W 076°36'0 0.0
2017-Jul-03 13:29N 39°17' W 076°36'0 0.0
2017-Jul-03 12:59N 39°17' W 076°36'0 0.0
2017-Jul-03 12:29N 39°17' W 076°36'0 0.0
2017-Jul-03 11:59N 39°17' W 076°36'0 0.0
2017-Jul-03 11:29N 39°17' W 076°36'0 0.0
2017-Jul-03 10:59N 39°17' W 076°36'0 0.0
2017-Jul-03 10:29N 39°17' W 076°36'0 0.0
2017-Jul-03 09:59N 39°17' W 076°36'0 0.0
2017-Jul-03 09:29N 39°17' W 076°36'0 0.0
2017-Jul-03 08:59N 39°17' W 076°36'0 0.0
2017-Jul-03 08:29N 39°17' W 076°36'0 0.0
2017-Jul-03 07:59N 39°17' W 076°36'0 0.0
2017-Jul-03 07:29N 39°17' W 076°36'0 0.0
2017-Jul-03 06:59N 39°17' W 076°36'0 0.0
2017-Jul-03 06:29N 39°17' W 076°36'0 0.0
2017-Jul-03 06:00N 39°17' W 076°36'0 0.0
2017-Jul-03 05:29N 39°17' W 076°36'0 0.0
2017-Jul-03 04:56N 39°17' W 076°36'0 0.0
2017-Jul-03 04:29N 39°17' W 076°36'0 0.0
2017-Jul-03 03:59N 39°17' W 076°36'0 0.0
2017-Jul-03 03:23N 39°17' W 076°36'0 0.0
2017-Jul-03 02:59N 39°17' W 076°36'0 0.0
2017-Jul-03 02:29N 39°17' W 076°36'0 0.0
2017-Jul-03 01:59N 39°17' W 076°36'0 0.0
2017-Jul-03 01:24N 39°17' W 076°36'0 0.0
2017-Jul-03 00:56N 39°17' W 076°36'0 0.0
2017-Jul-03 00:14N 39°17' W 076°36'0 0.0
2017-Jul-02 23:59N 39°17' W 076°36'0 0.0
2017-Jul-02 23:29N 39°17' W 076°36'0 0.0
2017-Jul-02 22:53N 39°17' W 076°36'0 0.0
2017-Jul-02 22:23N 39°17' W 076°36'0 0.0
2017-Jul-02 21:59N 39°17' W 076°36'0 0.0
2017-Jul-02 21:29N 39°17' W 076°36'  
Track history (hours):
 
Tides and Currents Weather Stations Pressure Air Temp Water Temp Dewpoint Dewpoint Depression Visibility Wind Speed Wind Dir Waves Ship Positions

Nord Nanami

Last reported at 2017-Jul-12 21:07 UTC. Time now 2017-Jul-25 02:27 UTC.
Position N 27°36' W 082°44'.
Warning: this ship's position is 12 days out of date.

Length 180 m; draft 9.5 m.

Type: Ship. MMSI: 373694000.

Date/timePositionNaut miles runAvg speedWind from/ knotsBaromVisibWave heightAir tempDewpointWater temp
2017-Jul-12 21:07N 27°36' W 082°44'112.5
2017-Jul-12 21:00N 27°36' W 082°43'810.7
2017-Jul-12 20:14N 27°41' W 082°35'410.5
2017-Jul-12 19:53N 27°44' W 082°32'410.3
2017-Jul-12 19:30N 27°47' W 082°31'5 9.7
2017-Jul-12 19:00N 27°51' W 082°27'4 8.0
2017-Jul-12 18:30N 27°55' W 082°26'1 2.0
2017-Jul-12 17:59N 27°56' W 082°26'0 0.0
2017-Jul-12 17:29N 27°56' W 082°26'0 0.0
2017-Jul-12 16:59N 27°56' W 082°26'0 0.0
2017-Jul-12 16:29N 27°56' W 082°26'0 0.0
2017-Jul-12 15:59N 27°56' W 082°26'0 0.0
2017-Jul-12 15:29N 27°56' W 082°26'0 0.0
2017-Jul-12 14:59N 27°56' W 082°26'0 0.0
2017-Jul-12 13:59N 27°56' W 082°26'0 0.0
2017-Jul-12 13:29N 27°56' W 082°26'0 0.0
2017-Jul-12 12:59N 27°56' W 082°26'0 0.0
2017-Jul-12 12:29N 27°56' W 082°26'0 0.0
2017-Jul-12 11:59N 27°56' W 082°26'0 0.0
2017-Jul-12 11:29N 27°56' W 082°26'0 0.0
2017-Jul-12 10:59N 27°56' W 082°26'0 0.0
2017-Jul-12 10:29N 27°56' W 082°26'0 0.0
2017-Jul-12 09:59N 27°56' W 082°26'0 0.0
2017-Jul-12 09:29N 27°56' W 082°26'0 0.0
2017-Jul-12 08:59N 27°56' W 082°26'0 0.0
2017-Jul-12 08:29N 27°56' W 082°26'0 0.0
2017-Jul-12 07:59N 27°56' W 082°26'0 0.0
2017-Jul-12 07:29N 27°56' W 082°26'0 0.0
2017-Jul-12 06:59N 27°56' W 082°26'0 0.0
2017-Jul-12 06:29N 27°56' W 082°26'0 0.0
2017-Jul-12 05:56N 27°56' W 082°26'0 0.0
2017-Jul-12 05:29N 27°56' W 082°26'0 0.0
2017-Jul-12 04:59N 27°56' W 082°26'0 0.0
2017-Jul-12 04:29N 27°56' W 082°26'0 0.0
2017-Jul-12 03:59N 27°56' W 082°26'0 0.0
2017-Jul-12 03:29N 27°56' W 082°26'0 0.0
2017-Jul-12 02:59N 27°56' W 082°26'0 0.0
2017-Jul-12 02:26N 27°56' W 082°26'0 0.0
2017-Jul-12 01:59N 27°56' W 082°26'0 0.0
2017-Jul-12 01:29N 27°56' W 082°26'0 0.0
2017-Jul-12 00:59N 27°56' W 082°26'0 0.0
2017-Jul-12 00:29N 27°56' W 082°26'0 0.0
2017-Jul-11 23:59N 27°56' W 082°26'0 0.0
2017-Jul-11 23:29N 27°56' W 082°26'0 0.0
2017-Jul-11 22:59N 27°56' W 082°26'0 0.0
2017-Jul-11 22:29N 27°56' W 082°26'0 0.0
2017-Jul-11 21:59N 27°56' W 082°26'0 0.0
2017-Jul-11 21:29N 27°56' W 082°26'0 0.0
2017-Jul-11 20:59N 27°56' W 082°26'0 0.0
2017-Jul-11 20:29N 27°56' W 082°26'0 0.1
2017-Jul-11 20:00N 27°56' W 082°26'1 1.4
2017-Jul-11 19:30N 27°55' W 082°26'2 4.8
2017-Jul-11 19:00N 27°53' W 082°26'510.0
2017-Jul-11 18:30N 27°48' W 082°29'510.9
2017-Jul-11 18:01N 27°44' W 082°32'612.5
2017-Jul-11 17:31N 27°39' W 082°37'612.7
2017-Jul-11 17:01N 27°36' W 082°43'19 1.8
2017-Jul-11 06:16N 27°39' W 083°04'0 0.0
2017-Jul-11 05:52N 27°39' W 083°04'0 0.0
2017-Jul-11 03:21N 27°39' W 083°04'1 2.0
2017-Jul-11 02:59N 27°38' W 083°05'2 3.6
2017-Jul-11 02:18N 27°36' W 083°04'1111.6
2017-Jul-11 01:22N 27°36' W 082°52'513.0
2017-Jul-11 01:00N 27°37' W 082°46'713.2
2017-Jul-11 00:28N 27°38' W 082°38'612.9
2017-Jul-11 00:00N 27°42' W 082°33'612.2
2017-Jul-10 23:30N 27°47' W 082°31'5 9.9
2017-Jul-10 23:00N 27°51' W 082°27'3 5.6
2017-Jul-10 22:30N 27°51' W 082°24'0 0.2
2017-Jul-10 21:55N 27°51' W 082°24'0 0.0
2017-Jul-10 21:29N 27°51' W 082°24'0 0.0
2017-Jul-10 20:59N 27°51' W 082°24'0 0.0
2017-Jul-10 20:28N 27°51' W 082°24'0 0.0
2017-Jul-10 19:58N 27°51' W 082°24'0 0.0
2017-Jul-10 19:28N 27°51' W 082°24'0 0.0
2017-Jul-10 18:58N 27°51' W 082°24'0 0.0
2017-Jul-10 18:28N 27°51' W 082°24'0 0.0
2017-Jul-10 17:58N 27°51' W 082°24'0 0.0
2017-Jul-10 17:29N 27°51' W 082°24'0 0.0
2017-Jul-10 17:00N 27°51' W 082°24'0 0.0
2017-Jul-10 16:30N 27°51' W 082°24'0 0.0
2017-Jul-10 16:00N 27°51' W 082°24'0 0.0
2017-Jul-10 15:30N 27°51' W 082°24'0 0.0
2017-Jul-10 15:00N 27°51' W 082°24'0 0.0
2017-Jul-10 14:30N 27°51' W 082°24'0 0.0
2017-Jul-10 14:00N 27°51' W 082°24'0 0.0
2017-Jul-10 13:30N 27°51' W 082°24'0 0.0
2017-Jul-10 13:00N 27°51' W 082°24'0 0.0
2017-Jul-10 12:30N 27°51' W 082°24'0 0.0
2017-Jul-10 12:00N 27°51' W 082°24'0 0.0
2017-Jul-10 11:30N 27°51' W 082°24'0 0.0
2017-Jul-10 11:00N 27°51' W 082°24'0 0.0
2017-Jul-10 10:30N 27°51' W 082°24'0 0.0
2017-Jul-10 10:00N 27°51' W 082°24'0 0.0
2017-Jul-10 09:30N 27°51' W 082°24'0 0.0
2017-Jul-10 09:00N 27°51' W 082°24'0 0.0
2017-Jul-10 08:30N 27°51' W 082°24'0 0.0
2017-Jul-10 08:00N 27°51' W 082°24'0 0.0
2017-Jul-10 07:30N 27°51' W 082°24'0 0.0
2017-Jul-10 07:00N 27°51' W 082°24'0 0.0
2017-Jul-10 06:30N 27°51' W 082°24'0 0.0
2017-Jul-10 06:00N 27°51' W 082°24'0 0.0
2017-Jul-10 05:30N 27°51' W 082°24'0 0.0
2017-Jul-10 05:00N 27°51' W 082°24'0 0.0
2017-Jul-10 04:30N 27°51' W 082°24'0 0.0
2017-Jul-10 04:00N 27°51' W 082°24'0 0.0
2017-Jul-10 03:30N 27°51' W 082°24'0 0.0
2017-Jul-10 03:00N 27°51' W 082°24'0 0.0
2017-Jul-10 02:30N 27°51' W 082°24'0 0.0
2017-Jul-10 02:00N 27°51' W 082°24'0 0.0
2017-Jul-10 01:30N 27°51' W 082°24'0 0.0
2017-Jul-10 01:00N 27°51' W 082°24'0 0.0
2017-Jul-10 00:30N 27°51' W 082°24'0 0.0
2017-Jul-10 00:00N 27°51' W 082°24'0 0.0
2017-Jul-09 23:30N 27°51' W 082°24'0 0.0
2017-Jul-09 23:00N 27°51' W 082°24'0 0.0
2017-Jul-09 22:30N 27°51' W 082°24'0 0.0
2017-Jul-09 22:00N 27°51' W 082°24'0 0.0
2017-Jul-09 21:30N 27°51' W 082°24'0 0.0
2017-Jul-09 21:00N 27°51' W 082°24'0 0.0
2017-Jul-09 20:30N 27°51' W 082°24'0 0.0
2017-Jul-09 20:00N 27°51' W 082°24'0 0.0
2017-Jul-09 19:30N 27°51' W 082°24'0 0.0
2017-Jul-09 18:57N 27°51' W 082°24'0 0.0
2017-Jul-09 18:30N 27°51' W 082°24'0 0.0
2017-Jul-09 17:57N 27°51' W 082°24'0 0.0
2017-Jul-09 17:30N 27°51' W 082°24'0 0.0
2017-Jul-09 17:00N 27°51' W 082°24'0 0.0
2017-Jul-09 16:30N 27°51' W 082°24'0 0.0
2017-Jul-09 16:00N 27°51' W 082°24'0 0.0
2017-Jul-09 15:30N 27°51' W 082°24'0 0.0
2017-Jul-09 15:00N 27°51' W 082°24'0 0.0
2017-Jul-09 14:30N 27°51' W 082°24'0 0.0
2017-Jul-09 14:00N 27°51' W 082°24'0 0.0
2017-Jul-09 13:30N 27°51' W 082°24'0 0.0
2017-Jul-09 13:00N 27°51' W 082°24'0 0.0
2017-Jul-09 12:21N 27°51' W 082°24'0 0.0
2017-Jul-09 12:00N 27°51' W 082°24'0 0.0
2017-Jul-09 11:27N 27°51' W 082°24'0 0.0
2017-Jul-09 10:54N 27°51' W 082°24'0 0.0
2017-Jul-09 10:27N 27°51' W 082°24'0 0.0
2017-Jul-09 10:00N 27°51' W 082°24'0 0.0
2017-Jul-09 09:30N 27°51' W 082°24'0 0.0
2017-Jul-09 08:57N 27°51' W 082°24'0 0.0
2017-Jul-09 08:27N 27°51' W 082°24'0 0.0
2017-Jul-09 08:00N 27°51' W 082°24'0 0.0
2017-Jul-09 07:30N 27°51' W 082°24'0 0.0
2017-Jul-09 07:00N 27°51' W 082°24'0 0.0
2017-Jul-09 06:30N 27°51' W 082°24'0 0.0
2017-Jul-09 06:00N 27°51' W 082°24'0 0.0
2017-Jul-09 05:30N 27°51' W 082°24'0 0.0
2017-Jul-09 05:00N 27°51' W 082°24'0 0.0
2017-Jul-09 04:30N 27°51' W 082°24'0 0.0
2017-Jul-09 03:57N 27°51' W 082°24'0 0.0
2017-Jul-09 03:30N 27°51' W 082°24'0 0.0
2017-Jul-09 03:00N 27°51' W 082°24'0 0.0
2017-Jul-09 02:30N 27°51' W 082°24'0 0.0
2017-Jul-09 02:00N 27°51' W 082°24'0 0.0
2017-Jul-09 01:27N 27°51' W 082°24'0 0.0
2017-Jul-09 01:00N 27°51' W 082°24'0 0.0
2017-Jul-09 00:30N 27°51' W 082°24'0 0.0
2017-Jul-09 00:00N 27°51' W 082°24'0 0.0
2017-Jul-08 23:30N 27°51' W 082°24'0 0.0
2017-Jul-08 23:00N 27°51' W 082°24'0 0.0
2017-Jul-08 22:30N 27°51' W 082°24'0 0.0
2017-Jul-08 22:00N 27°51' W 082°24'0 0.0
2017-Jul-08 21:30N 27°51' W 082°24'0 0.0
2017-Jul-08 21:00N 27°51' W 082°24'0 0.0
2017-Jul-08 20:30N 27°51' W 082°24'0 0.0
2017-Jul-08 20:00N 27°51' W 082°24'0 0.0
2017-Jul-08 19:30N 27°51' W 082°24'2 3.2
2017-Jul-08 19:00N 27°51' W 082°25'4 7.6
2017-Jul-08 18:31N 27°48' W 082°28'611.2
2017-Jul-08 18:00N 27°44' W 082°32'612.9
2017-Jul-08 17:30N 27°39' W 082°37'612.8
2017-Jul-08 17:01N 27°36' W 082°43'202 5.7
2017-Jul-07 05:45N 25°23' W 079°53'210.0
2017-Jul-07 05:30N 25°26' W 079°52'510.1
2017-Jul-07 05:00N 25°31' W 079°51'510.1
2017-Jul-07 04:30N 25°35' W 079°49'510.1
2017-Jul-07 04:00N 25°40' W 079°48'510.2
2017-Jul-07 03:30N 25°45' W 079°46'510.4
2017-Jul-07 03:00N 25°50' W 079°44'510.5
2017-Jul-07 02:30N 25°55' W 079°43'510.7
2017-Jul-07 02:00N 26°00' W 079°41'510.9
2017-Jul-07 01:30N 26°05' W 079°39'510.9
2017-Jul-07 01:00N 26°11' W 079°38'611.1
2017-Jul-07 00:30N 26°16' W 079°36'  
2017-Jul-04 14:55N 36°46' W 075°44'1111.6
2017-Jul-04 14:00N 36°53' W 075°54'612.4
2017-Jul-04 13:30N 36°57' W 075°60'612.3
2017-Jul-04 13:00N 37°02' W 076°04'713.0
2017-Jul-04 12:30N 37°08' W 076°08'1412.4
2017-Jul-04 11:21N 37°22' W 076°08'812.6
2017-Jul-04 10:42N 37°30' W 076°08'212.7
2017-Jul-04 10:30N 37°33' W 076°08'713.1
2017-Jul-04 10:00N 37°39' W 076°10'713.5
2017-Jul-04 09:30N 37°46' W 076°11'713.6
2017-Jul-04 09:00N 37°53' W 076°10'713.9
2017-Jul-04 08:30N 37°59' W 076°12'713.8
2017-Jul-04 08:00N 38°06' W 076°14'713.2
2017-Jul-04 07:31N 38°12' W 076°17'713.0
2017-Jul-04 07:00N 38°19' W 076°19'510.2
2017-Jul-04 06:30N 38°23' W 076°21'612.7
2017-Jul-04 06:00N 38°29' W 076°24'612.7
2017-Jul-04 05:30N 38°35' W 076°26'612.6
2017-Jul-04 05:00N 38°42' W 076°26'612.7
2017-Jul-04 04:30N 38°48' W 076°25'612.8
2017-Jul-04 04:01N 38°54' W 076°24'612.4
2017-Jul-04 03:31N 39°01' W 076°23'612.6
2017-Jul-04 03:01N 39°07' W 076°24'612.1
2017-Jul-04 02:31N 39°11' W 076°29'4 7.9
2017-Jul-04 02:01N 39°14' W 076°32'0 0.1
2017-Jul-04 01:31N 39°14' W 076°32'0 0.0
2017-Jul-04 01:01N 39°14' W 076°32'0 0.0
2017-Jul-04 00:31N 39°14' W 076°32'0 0.0
2017-Jul-04 00:00N 39°14' W 076°32'0 0.0
2017-Jul-03 23:31N 39°14' W 076°32'0 0.0
2017-Jul-03 23:01N 39°14' W 076°32'0 0.0
2017-Jul-03 22:30N 39°14' W 076°32'0 0.0
2017-Jul-03 22:01N 39°14' W 076°32'0 0.1
2017-Jul-03 21:31N 39°14' W 076°32'0 0.1
2017-Jul-03 21:01N 39°14' W 076°32'0 0.1
2017-Jul-03 20:31N 39°14' W 076°32'0 0.1
2017-Jul-03 19:58N 39°14' W 076°33'2 3.5
2017-Jul-03 19:30N 39°15' W 076°34'2 3.7
2017-Jul-03 19:00N 39°17' W 076°35'0 0.3
2017-Jul-03 18:29N 39°17' W 076°36'0 0.0
2017-Jul-03 17:59N 39°17' W 076°36'0 0.0
2017-Jul-03 17:23N 39°17' W 076°36'0 0.0
2017-Jul-03 16:59N 39°17' W 076°36'0 0.0
2017-Jul-03 16:26N 39°17' W 076°36'0 0.0
2017-Jul-03 15:59N 39°17' W 076°36'0 0.0
2017-Jul-03 15:29N 39°17' W 076°36'0 0.0
2017-Jul-03 14:59N 39°17' W 076°36'0 0.0
2017-Jul-03 13:59N 39°17' W 076°36'0 0.0
2017-Jul-03 13:29N 39°17' W 076°36'0 0.0
2017-Jul-03 12:59N 39°17' W 076°36'0 0.0
2017-Jul-03 12:29N 39°17' W 076°36'0 0.0
2017-Jul-03 11:59N 39°17' W 076°36'0 0.0
2017-Jul-03 11:29N 39°17' W 076°36'0 0.0
2017-Jul-03 10:59N 39°17' W 076°36'0 0.0
2017-Jul-03 10:29N 39°17' W 076°36'0 0.0
2017-Jul-03 09:59N 39°17' W 076°36'0 0.0
2017-Jul-03 09:29N 39°17' W 076°36'0 0.0
2017-Jul-03 08:59N 39°17' W 076°36'0 0.0
2017-Jul-03 08:29N 39°17' W 076°36'0 0.0
2017-Jul-03 07:59N 39°17' W 076°36'0 0.0
2017-Jul-03 07:29N 39°17' W 076°36'0 0.0
2017-Jul-03 06:59N 39°17' W 076°36'0 0.0
2017-Jul-03 06:29N 39°17' W 076°36'0 0.0
2017-Jul-03 06:00N 39°17' W 076°36'0 0.0
2017-Jul-03 05:29N 39°17' W 076°36'0 0.0
2017-Jul-03 04:56N 39°17' W 076°36'0 0.0
2017-Jul-03 04:29N 39°17' W 076°36'0 0.0
2017-Jul-03 03:59N 39°17' W 076°36'0 0.0
2017-Jul-03 03:23N 39°17' W 076°36'0 0.0
2017-Jul-03 02:59N 39°17' W 076°36'0 0.0
2017-Jul-03 02:29N 39°17' W 076°36'0 0.0
2017-Jul-03 01:59N 39°17' W 076°36'0 0.0
2017-Jul-03 01:24N 39°17' W 076°36'0 0.0
2017-Jul-03 00:56N 39°17' W 076°36'0 0.0
2017-Jul-03 00:14N 39°17' W 076°36'0 0.0
2017-Jul-02 23:59N 39°17' W 076°36'0 0.0
2017-Jul-02 23:29N 39°17' W 076°36'0 0.0
2017-Jul-02 22:53N 39°17' W 076°36'0 0.0
2017-Jul-02 22:23N 39°17' W 076°36'0 0.0
2017-Jul-02 21:59N 39°17' W 076°36'0 0.0
2017-Jul-02 21:29N 39°17' W 076°36'  

Dump ship's entire track history